sensor_id;sensor_type;location;lat;lon;timestamp;P1;durP1;ratioP1;P2;durP2;ratioP2
33644;SDS011;19986;48.190;16.366;2023-06-22T00:00:58;38.92;;;36.08;;
33644;SDS011;19986;48.190;16.366;2023-06-22T00:03:26;38.75;;;35.47;;
33644;SDS011;19986;48.190;16.366;2023-06-22T00:05:52;36.97;;;34.35;;
33644;SDS011;19986;48.190;16.366;2023-06-22T00:08:18;38.03;;;35.53;;
33644;SDS011;19986;48.190;16.366;2023-06-22T00:10:45;36.38;;;33.83;;
33644;SDS011;19986;48.190;16.366;2023-06-22T00:13:12;36.35;;;33.80;;
33644;SDS011;19986;48.190;16.366;2023-06-22T00:15:39;36.50;;;34.00;;
33644;SDS011;19986;48.190;16.366;2023-06-22T00:18:07;36.85;;;33.80;;
33644;SDS011;19986;48.190;16.366;2023-06-22T00:20:33;36.50;;;33.85;;
33644;SDS011;19986;48.190;16.366;2023-06-22T00:22:59;36.40;;;33.85;;
33644;SDS011;19986;48.190;16.366;2023-06-22T00:25:25;35.47;;;32.97;;
33644;SDS011;19986;48.190;16.366;2023-06-22T00:27:51;37.50;;;34.80;;
33644;SDS011;19986;48.190;16.366;2023-06-22T00:30:18;36.70;;;34.00;;
33644;SDS011;19986;48.190;16.366;2023-06-22T00:32:44;38.28;;;35.55;;
33644;SDS011;19986;48.190;16.366;2023-06-22T00:35:11;37.70;;;34.85;;
33644;SDS011;19986;48.190;16.366;2023-06-22T00:37:38;36.15;;;33.70;;
33644;SDS011;19986;48.190;16.366;2023-06-22T00:40:07;36.85;;;34.25;;
33644;SDS011;19986;48.190;16.366;2023-06-22T00:42:36;35.80;;;33.20;;
33644;SDS011;19986;48.190;16.366;2023-06-22T00:45:06;36.30;;;33.97;;
33644;SDS011;19986;48.190;16.366;2023-06-22T00:47:32;37.80;;;35.10;;
33644;SDS011;19986;48.190;16.366;2023-06-22T00:50:01;38.70;;;35.85;;
33644;SDS011;19986;48.190;16.366;2023-06-22T00:52:28;37.78;;;35.33;;
33644;SDS011;19986;48.190;16.366;2023-06-22T00:54:56;37.78;;;35.25;;
33644;SDS011;19986;48.190;16.366;2023-06-22T00:57:23;36.70;;;34.45;;
33644;SDS011;19986;48.190;16.366;2023-06-22T00:59:54;36.75;;;33.92;;
33644;SDS011;19986;48.190;16.366;2023-06-22T01:02:21;36.28;;;33.78;;
33644;SDS011;19986;48.190;16.366;2023-06-22T01:04:50;38.47;;;35.80;;
33644;SDS011;19986;48.190;16.366;2023-06-22T01:07:19;35.30;;;32.67;;
33644;SDS011;19986;48.190;16.366;2023-06-22T01:12:33;36.15;;;33.50;;
33644;SDS011;19986;48.190;16.366;2023-06-22T01:15:11;36.40;;;33.95;;
33644;SDS011;19986;48.190;16.366;2023-06-22T01:17:40;33.58;;;31.45;;
33644;SDS011;19986;48.190;16.366;2023-06-22T01:20:09;33.95;;;31.63;;
33644;SDS011;19986;48.190;16.366;2023-06-22T01:25:31;37.92;;;35.33;;
33644;SDS011;19986;48.190;16.366;2023-06-22T01:30:40;36.42;;;34.13;;
33644;SDS011;19986;48.190;16.366;2023-06-22T01:33:10;37.05;;;34.28;;
33644;SDS011;19986;48.190;16.366;2023-06-22T01:35:38;35.95;;;33.58;;
33644;SDS011;19986;48.190;16.366;2023-06-22T01:38:08;36.83;;;34.35;;
33644;SDS011;19986;48.190;16.366;2023-06-22T01:40:35;36.78;;;34.47;;
33644;SDS011;19986;48.190;16.366;2023-06-22T01:43:03;36.08;;;33.58;;
33644;SDS011;19986;48.190;16.366;2023-06-22T01:45:30;36.38;;;33.80;;
33644;SDS011;19986;48.190;16.366;2023-06-22T01:47:56;35.35;;;33.03;;
33644;SDS011;19986;48.190;16.366;2023-06-22T01:50:22;36.70;;;34.10;;
33644;SDS011;19986;48.190;16.366;2023-06-22T01:52:50;36.72;;;34.35;;
33644;SDS011;19986;48.190;16.366;2023-06-22T01:55:16;37.35;;;34.30;;
33644;SDS011;19986;48.190;16.366;2023-06-22T01:57:43;36.95;;;34.42;;
33644;SDS011;19986;48.190;16.366;2023-06-22T02:00:11;34.42;;;32.17;;
33644;SDS011;19986;48.190;16.366;2023-06-22T02:02:43;37.15;;;34.30;;
33644;SDS011;19986;48.190;16.366;2023-06-22T02:05:34;37.35;;;34.90;;
33644;SDS011;19986;48.190;16.366;2023-06-22T02:08:24;35.92;;;33.55;;
33644;SDS011;19986;48.190;16.366;2023-06-22T02:10:54;36.30;;;34.05;;
33644;SDS011;19986;48.190;16.366;2023-06-22T02:13:23;36.55;;;34.20;;
33644;SDS011;19986;48.190;16.366;2023-06-22T02:15:50;35.45;;;33.00;;
33644;SDS011;19986;48.190;16.366;2023-06-22T02:18:17;35.53;;;33.22;;
33644;SDS011;19986;48.190;16.366;2023-06-22T02:20:42;37.78;;;35.38;;
33644;SDS011;19986;48.190;16.366;2023-06-22T02:23:08;36.92;;;34.50;;
33644;SDS011;19986;48.190;16.366;2023-06-22T02:25:35;33.78;;;31.58;;
33644;SDS011;19986;48.190;16.366;2023-06-22T02:28:01;34.70;;;32.25;;
33644;SDS011;19986;48.190;16.366;2023-06-22T02:30:27;35.17;;;32.58;;
33644;SDS011;19986;48.190;16.366;2023-06-22T02:32:57;35.75;;;33.53;;
33644;SDS011;19986;48.190;16.366;2023-06-22T02:35:26;37.20;;;34.65;;
33644;SDS011;19986;48.190;16.366;2023-06-22T02:37:58;35.70;;;33.58;;
33644;SDS011;19986;48.190;16.366;2023-06-22T02:40:26;35.83;;;33.53;;
33644;SDS011;19986;48.190;16.366;2023-06-22T02:42:53;37.35;;;35.15;;
33644;SDS011;19986;48.190;16.366;2023-06-22T02:45:19;36.40;;;33.88;;
33644;SDS011;19986;48.190;16.366;2023-06-22T02:47:45;36.60;;;34.30;;
33644;SDS011;19986;48.190;16.366;2023-06-22T02:50:13;36.03;;;33.53;;
33644;SDS011;19986;48.190;16.366;2023-06-22T02:52:54;36.70;;;34.33;;
33644;SDS011;19986;48.190;16.366;2023-06-22T02:55:20;35.17;;;32.83;;
33644;SDS011;19986;48.190;16.366;2023-06-22T02:57:46;36.67;;;34.25;;
33644;SDS011;19986;48.190;16.366;2023-06-22T03:00:16;36.85;;;34.53;;
33644;SDS011;19986;48.190;16.366;2023-06-22T03:02:44;38.17;;;35.55;;
33644;SDS011;19986;48.190;16.366;2023-06-22T03:05:10;37.50;;;35.05;;
33644;SDS011;19986;48.190;16.366;2023-06-22T03:07:42;38.10;;;35.30;;
33644;SDS011;19986;48.190;16.366;2023-06-22T03:10:09;36.42;;;34.20;;
33644;SDS011;19986;48.190;16.366;2023-06-22T03:12:37;36.42;;;34.30;;
33644;SDS011;19986;48.190;16.366;2023-06-22T03:15:05;36.22;;;33.70;;
33644;SDS011;19986;48.190;16.366;2023-06-22T03:17:33;37.15;;;34.90;;
33644;SDS011;19986;48.190;16.366;2023-06-22T03:20:00;38.15;;;35.03;;
33644;SDS011;19986;48.190;16.366;2023-06-22T03:22:27;36.75;;;34.38;;
33644;SDS011;19986;48.190;16.366;2023-06-22T03:24:53;36.40;;;33.92;;
33644;SDS011;19986;48.190;16.366;2023-06-22T03:27:18;35.88;;;33.70;;
33644;SDS011;19986;48.190;16.366;2023-06-22T03:29:44;37.42;;;34.63;;
33644;SDS011;19986;48.190;16.366;2023-06-22T03:32:11;36.40;;;34.20;;
33644;SDS011;19986;48.190;16.366;2023-06-22T03:34:36;37.28;;;34.88;;
33644;SDS011;19986;48.190;16.366;2023-06-22T03:37:02;37.25;;;34.80;;
33644;SDS011;19986;48.190;16.366;2023-06-22T03:39:28;38.22;;;35.38;;
33644;SDS011;19986;48.190;16.366;2023-06-22T03:41:55;37.30;;;34.90;;
33644;SDS011;19986;48.190;16.366;2023-06-22T03:44:21;34.88;;;32.53;;
33644;SDS011;19986;48.190;16.366;2023-06-22T03:46:47;37.13;;;34.45;;
33644;SDS011;19986;48.190;16.366;2023-06-22T03:49:15;37.83;;;35.20;;
33644;SDS011;19986;48.190;16.366;2023-06-22T03:51:41;39.35;;;36.95;;
33644;SDS011;19986;48.190;16.366;2023-06-22T03:54:06;38.00;;;35.58;;
33644;SDS011;19986;48.190;16.366;2023-06-22T03:56:32;35.90;;;33.70;;
33644;SDS011;19986;48.190;16.366;2023-06-22T03:58:58;38.35;;;35.78;;
33644;SDS011;19986;48.190;16.366;2023-06-22T04:01:24;37.17;;;34.80;;
33644;SDS011;19986;48.190;16.366;2023-06-22T04:03:50;36.30;;;33.95;;
33644;SDS011;19986;48.190;16.366;2023-06-22T04:06:16;36.20;;;33.72;;
33644;SDS011;19986;48.190;16.366;2023-06-22T04:08:41;37.90;;;34.80;;
33644;SDS011;19986;48.190;16.366;2023-06-22T04:11:07;37.97;;;35.60;;
33644;SDS011;19986;48.190;16.366;2023-06-22T04:13:33;36.75;;;34.08;;
33644;SDS011;19986;48.190;16.366;2023-06-22T04:15:59;39.22;;;36.35;;
33644;SDS011;19986;48.190;16.366;2023-06-22T04:18:26;37.78;;;35.03;;
33644;SDS011;19986;48.190;16.366;2023-06-22T04:20:52;36.53;;;34.25;;
33644;SDS011;19986;48.190;16.366;2023-06-22T04:23:18;38.10;;;35.35;;
33644;SDS011;19986;48.190;16.366;2023-06-22T04:25:45;34.90;;;32.53;;
33644;SDS011;19986;48.190;16.366;2023-06-22T04:28:11;38.45;;;35.50;;
33644;SDS011;19986;48.190;16.366;2023-06-22T04:30:37;38.72;;;35.78;;
33644;SDS011;19986;48.190;16.366;2023-06-22T04:33:15;38.38;;;35.60;;
33644;SDS011;19986;48.190;16.366;2023-06-22T04:35:41;38.72;;;35.92;;
33644;SDS011;19986;48.190;16.366;2023-06-22T04:38:08;38.20;;;35.30;;
33644;SDS011;19986;48.190;16.366;2023-06-22T04:40:34;35.92;;;33.42;;
33644;SDS011;19986;48.190;16.366;2023-06-22T04:43:00;36.78;;;33.92;;
33644;SDS011;19986;48.190;16.366;2023-06-22T04:45:28;37.55;;;35.10;;
33644;SDS011;19986;48.190;16.366;2023-06-22T04:47:57;37.33;;;34.50;;
33644;SDS011;19986;48.190;16.366;2023-06-22T04:50:23;36.75;;;33.63;;
33644;SDS011;19986;48.190;16.366;2023-06-22T04:52:50;36.72;;;33.92;;
33644;SDS011;19986;48.190;16.366;2023-06-22T04:55:16;36.97;;;34.35;;
33644;SDS011;19986;48.190;16.366;2023-06-22T04:57:44;36.85;;;34.35;;
33644;SDS011;19986;48.190;16.366;2023-06-22T05:00:17;35.58;;;32.92;;
33644;SDS011;19986;48.190;16.366;2023-06-22T05:02:45;35.08;;;32.28;;
33644;SDS011;19986;48.190;16.366;2023-06-22T05:05:12;33.38;;;31.10;;
33644;SDS011;19986;48.190;16.366;2023-06-22T05:07:41;47.35;;;42.80;;
33644;SDS011;19986;48.190;16.366;2023-06-22T05:10:09;37.15;;;34.20;;
33644;SDS011;19986;48.190;16.366;2023-06-22T05:12:37;36.83;;;34.35;;
33644;SDS011;19986;48.190;16.366;2023-06-22T05:15:04;33.80;;;31.55;;
33644;SDS011;19986;48.190;16.366;2023-06-22T05:17:31;33.33;;;31.20;;
33644;SDS011;19986;48.190;16.366;2023-06-22T05:19:57;33.85;;;31.65;;
33644;SDS011;19986;48.190;16.366;2023-06-22T05:22:23;33.60;;;31.17;;
33644;SDS011;19986;48.190;16.366;2023-06-22T05:24:49;34.10;;;31.90;;
33644;SDS011;19986;48.190;16.366;2023-06-22T05:27:15;33.90;;;31.25;;
33644;SDS011;19986;48.190;16.366;2023-06-22T05:29:40;34.55;;;32.30;;
33644;SDS011;19986;48.190;16.366;2023-06-22T05:32:09;32.65;;;30.50;;
33644;SDS011;19986;48.190;16.366;2023-06-22T05:34:35;34.63;;;32.42;;
33644;SDS011;19986;48.190;16.366;2023-06-22T05:37:02;34.30;;;31.45;;
33644;SDS011;19986;48.190;16.366;2023-06-22T05:39:28;36.10;;;33.05;;
33644;SDS011;19986;48.190;16.366;2023-06-22T05:41:54;36.33;;;33.22;;
33644;SDS011;19986;48.190;16.366;2023-06-22T05:44:20;37.10;;;34.03;;
33644;SDS011;19986;48.190;16.366;2023-06-22T05:46:46;36.90;;;33.85;;
33644;SDS011;19986;48.190;16.366;2023-06-22T05:49:13;35.30;;;32.45;;
33644;SDS011;19986;48.190;16.366;2023-06-22T05:51:40;37.28;;;33.85;;
33644;SDS011;19986;48.190;16.366;2023-06-22T05:54:06;37.42;;;34.47;;
33644;SDS011;19986;48.190;16.366;2023-06-22T05:56:33;36.17;;;33.65;;
33644;SDS011;19986;48.190;16.366;2023-06-22T05:58:59;38.60;;;35.78;;
33644;SDS011;19986;48.190;16.366;2023-06-22T06:01:25;36.20;;;33.40;;
33644;SDS011;19986;48.190;16.366;2023-06-22T06:03:52;36.65;;;33.78;;
33644;SDS011;19986;48.190;16.366;2023-06-22T06:06:18;35.88;;;33.33;;
33644;SDS011;19986;48.190;16.366;2023-06-22T06:08:54;38.17;;;35.35;;
33644;SDS011;19986;48.190;16.366;2023-06-22T06:11:20;40.17;;;36.92;;
33644;SDS011;19986;48.190;16.366;2023-06-22T06:13:46;37.63;;;34.95;;
33644;SDS011;19986;48.190;16.366;2023-06-22T06:16:12;36.45;;;33.22;;
33644;SDS011;19986;48.190;16.366;2023-06-22T06:18:38;38.85;;;35.88;;
33644;SDS011;19986;48.190;16.366;2023-06-22T06:21:19;39.92;;;36.92;;
33644;SDS011;19986;48.190;16.366;2023-06-22T06:23:45;39.10;;;35.65;;
33644;SDS011;19986;48.190;16.366;2023-06-22T06:26:12;39.00;;;35.60;;
33644;SDS011;19986;48.190;16.366;2023-06-22T06:28:38;39.85;;;36.42;;
33644;SDS011;19986;48.190;16.366;2023-06-22T06:31:04;40.42;;;37.03;;
33644;SDS011;19986;48.190;16.366;2023-06-22T06:33:32;40.28;;;37.17;;
33644;SDS011;19986;48.190;16.366;2023-06-22T06:35:58;43.45;;;40.03;;
33644;SDS011;19986;48.190;16.366;2023-06-22T06:38:27;41.60;;;38.05;;
33644;SDS011;19986;48.190;16.366;2023-06-22T06:40:52;45.28;;;41.22;;
33644;SDS011;19986;48.190;16.366;2023-06-22T06:43:18;44.85;;;40.95;;
33644;SDS011;19986;48.190;16.366;2023-06-22T06:45:44;46.17;;;41.70;;
33644;SDS011;19986;48.190;16.366;2023-06-22T06:48:10;45.38;;;41.50;;
33644;SDS011;19986;48.190;16.366;2023-06-22T06:50:37;47.67;;;43.67;;
33644;SDS011;19986;48.190;16.366;2023-06-22T06:53:02;48.58;;;44.67;;
33644;SDS011;19986;48.190;16.366;2023-06-22T06:55:28;45.85;;;42.13;;
33644;SDS011;19986;48.190;16.366;2023-06-22T06:57:58;48.05;;;43.67;;
33644;SDS011;19986;48.190;16.366;2023-06-22T07:00:25;47.58;;;43.20;;
33644;SDS011;19986;48.190;16.366;2023-06-22T07:02:51;48.40;;;44.40;;
33644;SDS011;19986;48.190;16.366;2023-06-22T07:05:18;46.60;;;42.78;;
33644;SDS011;19986;48.190;16.366;2023-06-22T07:07:45;47.55;;;43.45;;
33644;SDS011;19986;48.190;16.366;2023-06-22T07:10:11;48.67;;;44.60;;
33644;SDS011;19986;48.190;16.366;2023-06-22T07:12:37;49.40;;;45.47;;
33644;SDS011;19986;48.190;16.366;2023-06-22T07:15:07;45.97;;;42.17;;
33644;SDS011;19986;48.190;16.366;2023-06-22T07:17:35;47.65;;;43.47;;
33644;SDS011;19986;48.190;16.366;2023-06-22T07:20:02;45.90;;;42.10;;
33644;SDS011;19986;48.190;16.366;2023-06-22T07:22:37;45.45;;;41.72;;
33644;SDS011;19986;48.190;16.366;2023-06-22T07:25:04;44.60;;;41.13;;
33644;SDS011;19986;48.190;16.366;2023-06-22T07:27:38;45.88;;;42.28;;
33644;SDS011;19986;48.190;16.366;2023-06-22T07:30:08;45.05;;;41.67;;
33644;SDS011;19986;48.190;16.366;2023-06-22T07:32:34;45.75;;;41.72;;
33644;SDS011;19986;48.190;16.366;2023-06-22T07:35:00;44.13;;;40.47;;
33644;SDS011;19986;48.190;16.366;2023-06-22T07:37:28;44.08;;;40.50;;
33644;SDS011;19986;48.190;16.366;2023-06-22T07:39:54;47.08;;;43.00;;
33644;SDS011;19986;48.190;16.366;2023-06-22T07:42:25;46.55;;;42.80;;
33644;SDS011;19986;48.190;16.366;2023-06-22T07:44:51;45.05;;;41.47;;
33644;SDS011;19986;48.190;16.366;2023-06-22T07:47:18;44.80;;;41.08;;
33644;SDS011;19986;48.190;16.366;2023-06-22T07:49:44;46.05;;;42.35;;
33644;SDS011;19986;48.190;16.366;2023-06-22T07:52:13;43.85;;;40.33;;
33644;SDS011;19986;48.190;16.366;2023-06-22T07:54:39;43.50;;;39.88;;
33644;SDS011;19986;48.190;16.366;2023-06-22T07:57:05;43.40;;;39.83;;
33644;SDS011;19986;48.190;16.366;2023-06-22T07:59:31;42.50;;;38.83;;
33644;SDS011;19986;48.190;16.366;2023-06-22T08:01:57;41.70;;;38.03;;
33644;SDS011;19986;48.190;16.366;2023-06-22T08:04:23;44.08;;;40.28;;
33644;SDS011;19986;48.190;16.366;2023-06-22T08:06:49;42.45;;;39.28;;
33644;SDS011;19986;48.190;16.366;2023-06-22T08:09:15;42.08;;;38.75;;
33644;SDS011;19986;48.190;16.366;2023-06-22T08:11:41;42.47;;;39.17;;
33644;SDS011;19986;48.190;16.366;2023-06-22T08:14:06;43.10;;;39.67;;
33644;SDS011;19986;48.190;16.366;2023-06-22T08:16:32;43.83;;;40.58;;
33644;SDS011;19986;48.190;16.366;2023-06-22T08:19:00;44.47;;;40.60;;
33644;SDS011;19986;48.190;16.366;2023-06-22T08:21:26;42.92;;;39.58;;
33644;SDS011;19986;48.190;16.366;2023-06-22T08:23:53;40.83;;;37.72;;
33644;SDS011;19986;48.190;16.366;2023-06-22T08:26:19;42.28;;;38.83;;
33644;SDS011;19986;48.190;16.366;2023-06-22T08:28:45;41.80;;;38.30;;
33644;SDS011;19986;48.190;16.366;2023-06-22T08:31:11;39.53;;;36.85;;
33644;SDS011;19986;48.190;16.366;2023-06-22T08:33:39;41.90;;;38.53;;
33644;SDS011;19986;48.190;16.366;2023-06-22T08:36:05;42.80;;;38.83;;
33644;SDS011;19986;48.190;16.366;2023-06-22T08:38:33;40.75;;;37.80;;
33644;SDS011;19986;48.190;16.366;2023-06-22T08:40:59;42.55;;;39.00;;
33644;SDS011;19986;48.190;16.366;2023-06-22T08:43:26;41.42;;;38.20;;
33644;SDS011;19986;48.190;16.366;2023-06-22T08:45:51;39.72;;;36.92;;
33644;SDS011;19986;48.190;16.366;2023-06-22T08:48:17;41.05;;;37.78;;
33644;SDS011;19986;48.190;16.366;2023-06-22T08:50:43;41.00;;;37.75;;
33644;SDS011;19986;48.190;16.366;2023-06-22T08:53:11;42.47;;;38.65;;
33644;SDS011;19986;48.190;16.366;2023-06-22T08:55:38;43.92;;;39.97;;
33644;SDS011;19986;48.190;16.366;2023-06-22T08:58:03;41.45;;;38.08;;
33644;SDS011;19986;48.190;16.366;2023-06-22T09:00:30;40.60;;;37.38;;
33644;SDS011;19986;48.190;16.366;2023-06-22T09:02:59;39.83;;;36.70;;
33644;SDS011;19986;48.190;16.366;2023-06-22T09:05:25;39.17;;;36.17;;
33644;SDS011;19986;48.190;16.366;2023-06-22T09:07:51;39.55;;;36.72;;
33644;SDS011;19986;48.190;16.366;2023-06-22T09:10:20;38.60;;;35.42;;
33644;SDS011;19986;48.190;16.366;2023-06-22T09:12:46;39.35;;;36.45;;
33644;SDS011;19986;48.190;16.366;2023-06-22T09:15:11;40.65;;;37.60;;
33644;SDS011;19986;48.190;16.366;2023-06-22T09:17:40;38.70;;;35.58;;
33644;SDS011;19986;48.190;16.366;2023-06-22T09:20:06;38.28;;;35.38;;
33644;SDS011;19986;48.190;16.366;2023-06-22T09:22:35;39.80;;;36.92;;
33644;SDS011;19986;48.190;16.366;2023-06-22T09:25:01;39.53;;;36.53;;
33644;SDS011;19986;48.190;16.366;2023-06-22T09:27:28;40.83;;;37.45;;
33644;SDS011;19986;48.190;16.366;2023-06-22T09:29:55;40.88;;;37.67;;
33644;SDS011;19986;48.190;16.366;2023-06-22T09:32:23;40.13;;;36.22;;
33644;SDS011;19986;48.190;16.366;2023-06-22T09:34:50;39.55;;;36.28;;
33644;SDS011;19986;48.190;16.366;2023-06-22T09:37:16;41.22;;;37.92;;
33644;SDS011;19986;48.190;16.366;2023-06-22T09:39:42;39.63;;;36.50;;
33644;SDS011;19986;48.190;16.366;2023-06-22T09:42:08;39.78;;;36.58;;
33644;SDS011;19986;48.190;16.366;2023-06-22T09:44:34;41.03;;;37.58;;
33644;SDS011;19986;48.190;16.366;2023-06-22T09:47:00;40.03;;;37.08;;
33644;SDS011;19986;48.190;16.366;2023-06-22T09:49:27;38.75;;;35.33;;
33644;SDS011;19986;48.190;16.366;2023-06-22T09:51:53;39.38;;;36.58;;
33644;SDS011;19986;48.190;16.366;2023-06-22T09:54:19;39.22;;;36.30;;
33644;SDS011;19986;48.190;16.366;2023-06-22T09:56:44;39.78;;;36.85;;
33644;SDS011;19986;48.190;16.366;2023-06-22T09:59:10;41.00;;;37.35;;
33644;SDS011;19986;48.190;16.366;2023-06-22T10:01:38;39.08;;;35.83;;
33644;SDS011;19986;48.190;16.366;2023-06-22T10:04:04;38.70;;;35.70;;
33644;SDS011;19986;48.190;16.366;2023-06-22T10:06:30;37.85;;;34.47;;
33644;SDS011;19986;48.190;16.366;2023-06-22T10:08:56;35.85;;;33.20;;
33644;SDS011;19986;48.190;16.366;2023-06-22T10:11:22;36.97;;;34.10;;
33644;SDS011;19986;48.190;16.366;2023-06-22T10:13:54;38.08;;;35.47;;
33644;SDS011;19986;48.190;16.366;2023-06-22T10:16:20;38.45;;;35.60;;
33644;SDS011;19986;48.190;16.366;2023-06-22T10:18:49;36.00;;;33.35;;
33644;SDS011;19986;48.190;16.366;2023-06-22T10:21:15;35.22;;;32.70;;
33644;SDS011;19986;48.190;16.366;2023-06-22T10:23:41;37.10;;;34.42;;
33644;SDS011;19986;48.190;16.366;2023-06-22T10:26:07;35.85;;;33.38;;
33644;SDS011;19986;48.190;16.366;2023-06-22T10:28:33;35.15;;;32.60;;
33644;SDS011;19986;48.190;16.366;2023-06-22T10:30:58;36.08;;;33.60;;
33644;SDS011;19986;48.190;16.366;2023-06-22T10:33:24;34.03;;;31.73;;
33644;SDS011;19986;48.190;16.366;2023-06-22T10:35:50;33.85;;;31.25;;
33644;SDS011;19986;48.190;16.366;2023-06-22T10:38:16;35.25;;;32.80;;
33644;SDS011;19986;48.190;16.366;2023-06-22T10:40:41;35.55;;;33.08;;
33644;SDS011;19986;48.190;16.366;2023-06-22T10:43:07;34.75;;;32.35;;
33644;SDS011;19986;48.190;16.366;2023-06-22T10:45:33;33.95;;;31.67;;
33644;SDS011;19986;48.190;16.366;2023-06-22T10:47:59;34.05;;;31.23;;
33644;SDS011;19986;48.190;16.366;2023-06-22T10:50:25;34.50;;;31.92;;
33644;SDS011;19986;48.190;16.366;2023-06-22T10:52:51;33.50;;;31.25;;
33644;SDS011;19986;48.190;16.366;2023-06-22T10:55:17;32.67;;;30.35;;
33644;SDS011;19986;48.190;16.366;2023-06-22T10:57:43;32.97;;;30.63;;
33644;SDS011;19986;48.190;16.366;2023-06-22T11:00:13;33.90;;;31.23;;
33644;SDS011;19986;48.190;16.366;2023-06-22T11:02:40;32.30;;;30.10;;
33644;SDS011;19986;48.190;16.366;2023-06-22T11:05:06;34.28;;;31.67;;
33644;SDS011;19986;48.190;16.366;2023-06-22T11:07:32;34.38;;;32.10;;
33644;SDS011;19986;48.190;16.366;2023-06-22T11:09:58;33.45;;;31.08;;
33644;SDS011;19986;48.190;16.366;2023-06-22T11:12:24;34.95;;;32.53;;
33644;SDS011;19986;48.190;16.366;2023-06-22T11:14:50;36.00;;;32.90;;
33644;SDS011;19986;48.190;16.366;2023-06-22T11:17:17;37.78;;;34.78;;
33644;SDS011;19986;48.190;16.366;2023-06-22T11:19:44;35.42;;;32.72;;
33644;SDS011;19986;48.190;16.366;2023-06-22T11:22:10;35.40;;;32.97;;
33644;SDS011;19986;48.190;16.366;2023-06-22T11:24:36;37.25;;;34.45;;
33644;SDS011;19986;48.190;16.366;2023-06-22T11:27:02;35.92;;;33.10;;
33644;SDS011;19986;48.190;16.366;2023-06-22T11:29:27;37.35;;;34.42;;
33644;SDS011;19986;48.190;16.366;2023-06-22T11:31:53;37.08;;;33.83;;
33644;SDS011;19986;48.190;16.366;2023-06-22T11:34:19;36.60;;;34.00;;
33644;SDS011;19986;48.190;16.366;2023-06-22T11:36:45;36.42;;;33.75;;
33644;SDS011;19986;48.190;16.366;2023-06-22T11:39:12;37.38;;;34.00;;
33644;SDS011;19986;48.190;16.366;2023-06-22T11:41:40;35.47;;;33.28;;
33644;SDS011;19986;48.190;16.366;2023-06-22T11:44:07;35.17;;;32.47;;
33644;SDS011;19986;48.190;16.366;2023-06-22T11:46:33;35.22;;;32.47;;
33644;SDS011;19986;48.190;16.366;2023-06-22T11:49:01;35.08;;;32.80;;
33644;SDS011;19986;48.190;16.366;2023-06-22T11:51:27;35.47;;;32.20;;
33644;SDS011;19986;48.190;16.366;2023-06-22T11:53:53;33.38;;;31.08;;
33644;SDS011;19986;48.190;16.366;2023-06-22T11:56:19;34.85;;;32.33;;
33644;SDS011;19986;48.190;16.366;2023-06-22T11:58:45;34.42;;;31.88;;
33644;SDS011;19986;48.190;16.366;2023-06-22T12:01:10;33.97;;;31.70;;
33644;SDS011;19986;48.190;16.366;2023-06-22T12:03:40;33.47;;;31.13;;
33644;SDS011;19986;48.190;16.366;2023-06-22T12:06:06;32.78;;;30.77;;
33644;SDS011;19986;48.190;16.366;2023-06-22T12:08:32;33.45;;;31.30;;
33644;SDS011;19986;48.190;16.366;2023-06-22T12:10:57;32.92;;;30.38;;
33644;SDS011;19986;48.190;16.366;2023-06-22T12:13:23;34.25;;;31.52;;
33644;SDS011;19986;48.190;16.366;2023-06-22T12:15:49;34.47;;;31.80;;
33644;SDS011;19986;48.190;16.366;2023-06-22T12:18:17;33.13;;;30.55;;
33644;SDS011;19986;48.190;16.366;2023-06-22T12:20:45;33.95;;;31.50;;
33644;SDS011;19986;48.190;16.366;2023-06-22T12:23:12;33.22;;;30.88;;
33644;SDS011;19986;48.190;16.366;2023-06-22T12:25:39;32.65;;;30.33;;
33644;SDS011;19986;48.190;16.366;2023-06-22T12:28:04;33.78;;;31.58;;
33644;SDS011;19986;48.190;16.366;2023-06-22T12:30:32;34.35;;;31.75;;
33644;SDS011;19986;48.190;16.366;2023-06-22T12:32:58;33.65;;;31.08;;
33644;SDS011;19986;48.190;16.366;2023-06-22T12:35:25;33.85;;;31.30;;
33644;SDS011;19986;48.190;16.366;2023-06-22T12:37:51;32.33;;;30.20;;
33644;SDS011;19986;48.190;16.366;2023-06-22T12:40:18;33.65;;;31.27;;
33644;SDS011;19986;48.190;16.366;2023-06-22T12:42:45;32.35;;;29.80;;
33644;SDS011;19986;48.190;16.366;2023-06-22T12:45:11;33.08;;;30.80;;
33644;SDS011;19986;48.190;16.366;2023-06-22T12:47:37;32.40;;;30.13;;
33644;SDS011;19986;48.190;16.366;2023-06-22T12:50:03;32.67;;;30.27;;
33644;SDS011;19986;48.190;16.366;2023-06-22T12:52:44;32.40;;;30.17;;
33644;SDS011;19986;48.190;16.366;2023-06-22T12:55:10;32.47;;;30.25;;
33644;SDS011;19986;48.190;16.366;2023-06-22T12:57:36;34.05;;;31.55;;
33644;SDS011;19986;48.190;16.366;2023-06-22T13:00:02;35.00;;;32.28;;
33644;SDS011;19986;48.190;16.366;2023-06-22T13:02:30;35.38;;;32.78;;
33644;SDS011;19986;48.190;16.366;2023-06-22T13:04:56;35.95;;;33.17;;
33644;SDS011;19986;48.190;16.366;2023-06-22T13:07:22;34.75;;;32.08;;
33644;SDS011;19986;48.190;16.366;2023-06-22T13:09:48;33.50;;;31.10;;
33644;SDS011;19986;48.190;16.366;2023-06-22T13:12:16;35.50;;;32.80;;
33644;SDS011;19986;48.190;16.366;2023-06-22T13:14:43;34.42;;;31.88;;
33644;SDS011;19986;48.190;16.366;2023-06-22T13:17:09;36.03;;;33.40;;
33644;SDS011;19986;48.190;16.366;2023-06-22T13:19:35;35.08;;;32.25;;
33644;SDS011;19986;48.190;16.366;2023-06-22T13:22:00;36.42;;;33.70;;
33644;SDS011;19986;48.190;16.366;2023-06-22T13:24:27;35.13;;;32.63;;
33644;SDS011;19986;48.190;16.366;2023-06-22T13:26:53;35.30;;;32.60;;
33644;SDS011;19986;48.190;16.366;2023-06-22T13:29:20;34.97;;;32.35;;
33644;SDS011;19986;48.190;16.366;2023-06-22T13:31:46;34.50;;;31.70;;
33644;SDS011;19986;48.190;16.366;2023-06-22T13:34:12;34.40;;;31.90;;
33644;SDS011;19986;48.190;16.366;2023-06-22T13:36:38;35.80;;;32.92;;
33644;SDS011;19986;48.190;16.366;2023-06-22T13:39:03;34.83;;;32.25;;
33644;SDS011;19986;48.190;16.366;2023-06-22T13:41:29;36.55;;;33.40;;
33644;SDS011;19986;48.190;16.366;2023-06-22T13:43:55;34.42;;;31.90;;
33644;SDS011;19986;48.190;16.366;2023-06-22T13:46:21;33.83;;;31.63;;
33644;SDS011;19986;48.190;16.366;2023-06-22T13:48:47;35.72;;;32.92;;
33644;SDS011;19986;48.190;16.366;2023-06-22T13:51:13;35.10;;;32.50;;
33644;SDS011;19986;48.190;16.366;2023-06-22T13:53:39;34.50;;;32.22;;
33644;SDS011;19986;48.190;16.366;2023-06-22T13:56:05;34.83;;;32.13;;
33644;SDS011;19986;48.190;16.366;2023-06-22T13:58:33;33.03;;;30.80;;
33644;SDS011;19986;48.190;16.366;2023-06-22T14:00:58;35.05;;;32.30;;
33644;SDS011;19986;48.190;16.366;2023-06-22T14:03:24;32.47;;;30.02;;
33644;SDS011;19986;48.190;16.366;2023-06-22T14:05:50;35.00;;;32.47;;
33644;SDS011;19986;48.190;16.366;2023-06-22T14:08:19;36.45;;;33.60;;
33644;SDS011;19986;48.190;16.366;2023-06-22T14:10:46;34.90;;;32.35;;
33644;SDS011;19986;48.190;16.366;2023-06-22T14:13:12;34.60;;;31.88;;
33644;SDS011;19986;48.190;16.366;2023-06-22T14:15:37;36.63;;;33.92;;